Time;durP1;ratioP1;P1;durP2;ratioP2;P2;SDS_P1;SDS_P2;PMS_P1;PMS_P2;Temp;Humidity;BMP_temperature;BMP_pressure;BME280_temperature;BME280_humidity;BME280_pressure;Samples;Min_cycle;Max_cycle;Signal;HPM_P1;HPM_P2
2022/01/10 00:00:33;;;;;;;;;;;2.30;99.90;;;1.23;100.00;94900.25;10374561;28;2231;-70
2022/01/10 00:05:36;;;;;;;;;;;2.30;99.90;;;1.23;100.00;94893.09;10371327;28;1993;-68
2022/01/10 00:10:40;;;;;;;;;;;2.30;99.90;;;1.29;100.00;94894.00;10369232;28;2188;-68
2022/01/10 00:15:44;;;;;;;;;;;2.30;99.90;;;1.32;100.00;94899.63;10371204;28;2274;-69
2022/01/10 00:20:47;;;;;;;;;;;2.30;99.90;;;1.32;100.00;94901.47;10374680;28;1794;-70
2022/01/10 00:25:50;;;;;;;;;;;2.70;99.90;;;1.29;100.00;94896.66;10393683;28;1956;-70
2022/01/10 00:30:53;;;;;;;;;;;2.40;99.90;;;1.20;100.00;94904.16;10406434;28;1854;-70
2022/01/10 00:35:56;;;;;;;;;;;2.30;99.90;;;1.17;100.00;94890.59;10435157;28;1680;-71
2022/01/10 00:41:00;;;;;;;;;;;2.30;99.90;;;1.06;100.00;94882.44;10394535;28;1822;-69
2022/01/10 00:46:03;;;;;;;;;;;2.30;99.90;;;0.98;100.00;94888.13;10373568;28;1977;-69
2022/01/10 00:51:07;;;;;;;;;;;2.10;99.90;;;0.91;100.00;94894.59;10369886;28;1842;-68
2022/01/10 00:56:10;;;;;;;;;;;2.00;99.90;;;0.82;100.00;94897.59;10366408;28;1850;-69
2022/01/10 01:01:14;;;;;;;;;;;2.10;99.90;;;0.76;100.00;94908.31;10372782;28;1886;-68
2022/01/10 01:06:17;;;;;;;;;;;1.90;99.90;;;0.78;100.00;94912.34;10371595;28;1922;-69
2022/01/10 01:17:12;;;;;;;;;;;1.90;99.90;;;0.75;100.00;94927.84;10377331;28;1897;-69
2022/01/10 01:27:37;;;;;;;;;;;2.80;99.90;;;0.71;100.00;94947.91;10377813;28;1910;-68
2022/01/10 01:32:40;;;;;;;;;;;1.90;99.90;;;0.81;100.00;94953.38;10378567;28;1786;-67
2022/01/10 01:37:44;;;;;;;;;;;1.90;99.90;;;0.85;100.00;94959.84;10381059;28;1771;-69
2022/01/10 01:42:47;;;;;;;;;;;1.90;99.90;;;0.85;100.00;94969.63;10386089;28;1854;-69
2022/01/10 01:47:52;;;;;;;;;;;1.90;99.90;;;0.92;100.00;94972.94;10381594;28;1903;-69
2022/01/10 01:52:56;;;;;;;;;;;2.00;99.90;;;1.01;100.00;94974.97;10375821;28;1888;-69
2022/01/10 01:57:59;;;;;;;;;;;2.00;99.90;;;1.00;100.00;94978.66;10383034;28;1814;-70
2022/01/10 02:03:02;;;;;;;;;;;2.10;99.90;;;1.08;100.00;94986.28;10373343;28;1780;-69
2022/01/10 02:08:05;;;;;;;;;;;2.10;99.90;;;1.06;100.00;94988.31;10374081;28;1910;-69
2022/01/10 02:13:07;;;;;;;;;;;2.10;99.90;;;1.07;100.00;94994.41;10373087;28;1939;-69
2022/01/10 02:18:11;;;;;;;;;;;2.10;99.90;;;1.10;100.00;95001.09;10386828;28;1866;-70
2022/01/10 02:23:14;;;;;;;;;;;2.10;99.90;;;1.11;100.00;95005.34;10377596;28;1916;-69
2022/01/10 02:28:18;;;;;;;;;;;2.20;99.90;;;1.17;100.00;95012.38;10372009;28;1768;-67
2022/01/10 02:33:21;;;;;;;;;;;2.20;99.90;;;1.23;100.00;95020.19;10370648;28;1961;-69
2022/01/10 02:38:24;;;;;;;;;;;2.20;99.90;;;1.26;100.00;95021.53;10376575;28;1892;-69
2022/01/10 02:43:27;;;;;;;;;;;2.60;99.90;;;1.24;100.00;95028.94;10375534;28;1919;-68
2022/01/10 02:48:31;;;;;;;;;;;2.30;99.90;;;1.32;100.00;95037.31;10374778;28;1974;-68
2022/01/10 02:53:34;;;;;;;;;;;2.30;99.90;;;1.37;100.00;95041.09;10363184;28;2113;-69
2022/01/10 02:58:37;;;;;;;;;;;2.40;99.90;;;1.36;100.00;95050.91;10370575;28;2511;-70
2022/01/10 03:03:40;;;;;;;;;;;2.70;99.90;;;1.40;100.00;95067.09;10368299;28;1922;-68
2022/01/10 03:08:44;;;;;;;;;;;2.40;99.90;;;1.37;100.00;95062.28;10374894;28;1927;-69
2022/01/10 03:13:47;;;;;;;;;;;2.40;99.90;;;1.33;100.00;95067.22;10364723;28;1834;-67
2022/01/10 03:18:50;;;;;;;;;;;2.40;99.90;;;1.32;100.00;95071.72;10380481;28;1752;-68
2022/01/10 03:23:53;;;;;;;;;;;2.40;99.90;;;1.29;100.00;95077.50;10371235;28;1969;-68
2022/01/10 03:28:57;;;;;;;;;;;2.30;99.90;;;1.32;100.00;95086.81;10370989;28;2194;-67
2022/01/10 03:34:00;;;;;;;;;;;2.30;99.90;;;1.25;100.00;95092.22;10367265;28;2608;-69
2022/01/10 03:39:03;;;;;;;;;;;2.30;99.90;;;1.25;100.00;95092.22;10371577;28;1790;-67
2022/01/10 03:44:06;;;;;;;;;;;2.30;99.90;;;1.23;100.00;95096.16;10372362;28;1980;-69
2022/01/10 03:49:10;;;;;;;;;;;2.30;99.90;;;1.15;100.00;95096.50;10371590;28;1787;-69
2022/01/10 03:54:13;;;;;;;;;;;2.20;99.90;;;1.11;100.00;95103.28;10392124;28;1896;-68
2022/01/10 03:59:16;;;;;;;;;;;2.20;99.90;;;1.15;100.00;95109.75;10367558;28;1913;-68
2022/01/10 04:04:19;;;;;;;;;;;2.20;99.90;;;1.17;100.00;95113.75;10365830;28;1922;-68
2022/01/10 04:09:23;;;;;;;;;;;2.20;99.90;;;1.11;100.00;95116.53;10370713;28;1724;-69
2022/01/10 04:14:26;;;;;;;;;;;2.20;99.90;;;1.05;100.00;95128.84;10370746;28;1878;-68
2022/01/10 04:19:29;;;;;;;;;;;2.10;99.90;;;1.06;100.00;95131.25;10366590;28;1826;-69
2022/01/10 04:24:31;;;;;;;;;;;2.10;99.90;;;1.00;100.00;95134.00;10369072;28;2250;-69
2022/01/10 04:29:35;;;;;;;;;;;2.20;99.90;;;1.01;100.00;95139.06;10375935;28;1771;-70
2022/01/10 04:34:38;;;;;;;;;;;2.30;99.90;;;0.96;100.00;95154.84;10377527;28;1892;-69
2022/01/10 04:39:42;;;;;;;;;;;2.10;99.90;;;1.03;100.00;95155.53;10374571;28;1997;-70
2022/01/10 04:44:45;;;;;;;;;;;2.10;99.90;;;1.09;100.00;95164.41;10369079;28;1947;-69
2022/01/10 04:50:23;;;;;;;;;;;2.10;99.90;;;1.13;100.00;95170.03;10376346;28;1935;-70
2022/01/10 04:55:27;;;;;;;;;;;2.20;99.90;;;1.11;100.00;95190.66;10381082;28;1957;-69
2022/01/10 05:00:29;;;;;;;;;;;2.20;99.90;;;1.23;100.00;95188.81;10383246;28;1910;-69
2022/01/10 05:05:33;;;;;;;;;;;2.20;99.90;;;1.20;100.00;95189.25;10383037;28;2037;-69
2022/01/10 05:10:36;;;;;;;;;;;2.30;99.90;;;1.17;100.00;95200.31;10377622;28;2197;-68
2022/01/10 05:15:41;;;;;;;;;;;2.30;99.90;;;1.14;100.00;95212.16;10379805;28;2189;-68
2022/01/10 05:20:44;;;;;;;;;;;2.20;99.90;;;1.19;100.00;95217.56;10386369;23;2101;-71
2022/01/10 05:25:47;;;;;;;;;;;2.20;99.90;;;1.15;100.00;95221.75;10376243;28;2033;-73
2022/01/10 05:30:52;;;;;;;;;;;2.20;99.90;;;1.08;100.00;95224.50;10377729;28;1977;-73
2022/01/10 05:35:55;;;;;;;;;;;2.20;99.90;;;1.14;100.00;95232.53;10378242;28;2052;-73
2022/01/10 05:40:58;;;;;;;;;;;2.20;99.90;;;1.15;100.00;95242.91;10374629;28;1961;-72
2022/01/10 05:46:03;;;;;;;;;;;2.20;99.90;;;1.14;100.00;95245.75;10371765;28;1961;-71
2022/01/10 05:51:07;;;;;;;;;;;2.20;99.90;;;1.16;100.00;95254.31;10380746;28;1955;-73
2022/01/10 05:56:10;;;;;;;;;;;2.20;99.90;;;1.23;100.00;95268.25;10379089;28;2020;-73
2022/01/10 06:01:15;;;;;;;;;;;2.20;99.90;;;1.16;100.00;95278.13;10372229;28;1980;-73
2022/01/10 06:06:18;;;;;;;;;;;2.20;99.90;;;1.02;100.00;95291.56;10372552;28;1975;-73
2022/01/10 06:11:21;;;;;;;;;;;2.20;99.90;;;0.98;100.00;95300.97;10376473;28;1895;-72
2022/01/10 06:16:25;;;;;;;;;;;2.10;99.90;;;0.94;100.00;95307.75;10372816;28;1907;-71
2022/01/10 06:21:28;;;;;;;;;;;2.10;99.90;;;1.05;100.00;95312.28;10370653;28;1902;-74
2022/01/10 06:26:32;;;;;;;;;;;2.10;99.90;;;0.95;100.00;95314.66;10378294;28;2092;-72
2022/01/10 06:31:35;;;;;;;;;;;2.10;99.90;;;0.91;100.00;95318.78;10372867;28;1921;-75
2022/01/10 06:36:38;;;;;;;;;;;2.00;99.90;;;0.93;100.00;95329.13;10376829;28;2164;-71
2022/01/10 06:41:42;;;;;;;;;;;1.90;99.90;;;0.99;100.00;95342.28;10363431;28;2100;-71
2022/01/10 06:46:45;;;;;;;;;;;2.00;99.90;;;0.89;100.00;95363.19;10370169;28;1983;-73
2022/01/10 06:51:49;;;;;;;;;;;2.00;99.90;;;0.83;100.00;95369.38;10373613;28;1945;-72
2022/01/10 06:56:52;;;;;;;;;;;1.90;99.90;;;0.72;100.00;95373.56;10374607;28;2037;-72
2022/01/10 07:01:56;;;;;;;;;;;1.90;99.90;;;0.76;100.00;95385.34;10374748;28;1973;-73
2022/01/10 07:06:59;;;;;;;;;;;1.80;99.90;;;0.74;100.00;95392.66;10371444;28;2006;-73
2022/01/10 07:12:02;;;;;;;;;;;1.80;99.90;;;0.81;100.00;95408.47;10371639;28;1809;-74
2022/01/10 07:17:05;;;;;;;;;;;1.80;99.90;;;0.81;100.00;95413.75;10365585;28;1897;-75
2022/01/10 07:22:09;;;;;;;;;;;1.80;99.90;;;0.87;100.00;95418.16;10371816;28;1902;-70
2022/01/10 07:27:12;;;;;;;;;;;1.90;99.90;;;0.87;100.00;95426.09;10370646;28;1979;-73
2022/01/10 07:32:15;;;;;;;;;;;1.90;99.90;;;0.96;100.00;95438.03;10378299;28;1858;-72
2022/01/10 07:37:20;;;;;;;;;;;2.20;99.90;;;1.02;100.00;95445.09;10367527;28;1779;-74
2022/01/10 07:42:23;;;;;;;;;;;2.00;99.90;;;0.73;100.00;95459.84;10366972;28;1815;-74
2022/01/10 07:47:26;;;;;;;;;;;1.90;99.90;;;0.88;100.00;95477.19;10367375;28;1967;-73
2022/01/10 07:52:29;;;;;;;;;;;1.90;99.90;;;0.95;100.00;95484.03;10371167;28;1825;-73
2022/01/10 07:57:34;;;;;;;;;;;1.90;99.90;;;1.11;100.00;95487.94;10376215;28;1796;-73
2022/01/10 08:02:37;;;;;;;;;;;2.00;99.90;;;1.17;100.00;95487.06;10380603;28;1800;-73
2022/01/10 08:07:40;;;;;;;;;;;2.10;99.90;;;1.20;100.00;95507.78;10382518;28;1914;-75
2022/01/10 08:12:43;;;;;;;;;;;2.20;99.90;;;1.20;100.00;95506.97;10389355;28;1842;-74
2022/01/10 08:17:46;;;;;;;;;;;2.20;99.90;;;1.22;100.00;95518.16;10373149;28;1842;-72
2022/01/10 08:22:50;;;;;;;;;;;2.30;99.90;;;1.25;100.00;95520.34;10376762;28;1778;-71
2022/01/10 08:27:53;;;;;;;;;;;2.20;99.90;;;1.22;100.00;95534.06;10382244;28;1910;-73
2022/01/10 08:32:56;;;;;;;;;;;2.30;99.90;;;1.32;100.00;95536.97;10377592;28;1788;-72
2022/01/10 08:37:59;;;;;;;;;;;2.30;99.90;;;1.05;100.00;95544.41;10379103;28;1864;-71
2022/01/10 08:43:09;;;;;;;;;;;2.20;99.90;;;0.99;100.00;95559.31;10361219;28;1947;-72
2022/01/10 08:48:12;;;;;;;;;;;2.10;99.90;;;0.88;100.00;95561.88;10381596;28;2012;-72
2022/01/10 08:53:15;;;;;;;;;;;2.00;99.90;;;1.11;100.00;95579.78;10384759;28;1871;-71
2022/01/10 08:58:19;;;;;;;;;;;2.10;99.90;;;1.22;100.00;95579.06;10376423;28;1827;-71
2022/01/10 09:03:24;;;;;;;;;;;2.10;99.90;;;1.35;100.00;95590.31;10376765;28;1881;-73
2022/01/10 09:08:27;;;;;;;;;;;2.30;99.90;;;1.37;100.00;95592.75;10379293;28;1992;-72
2022/01/10 09:13:30;;;;;;;;;;;2.40;99.90;;;1.69;100.00;95608.50;10371664;28;1807;-72
2022/01/10 09:18:33;;;;;;;;;;;2.50;99.90;;;1.90;100.00;95619.44;10380949;28;1775;-71
2022/01/10 09:23:37;;;;;;;;;;;2.80;99.90;;;1.55;100.00;95627.19;10377571;28;1835;-74
2022/01/10 09:28:40;;;;;;;;;;;2.80;99.90;;;1.67;100.00;95629.09;10377892;28;1961;-72
2022/01/10 09:33:43;;;;;;;;;;;2.60;99.90;;;1.89;100.00;95636.38;10374658;28;1818;-73
2022/01/10 09:38:46;;;;;;;;;;;2.80;99.90;;;1.89;100.00;95648.81;10378541;28;1767;-72
2022/01/10 09:43:50;;;;;;;;;;;2.90;99.90;;;1.58;100.00;95655.88;10370789;28;1822;-73
2022/01/10 09:48:53;;;;;;;;;;;2.80;99.90;;;1.44;100.00;95658.88;10377514;28;1970;-72
2022/01/10 09:53:57;;;;;;;;;;;2.60;99.90;;;1.86;100.00;95668.63;10366244;28;1850;-73
2022/01/10 09:59:00;;;;;;;;;;;2.70;99.90;;;2.15;99.32;95664.41;10382510;28;1927;-73
2022/01/10 10:04:03;;;;;;;;;;;3.00;99.90;;;2.57;97.79;95661.81;10371539;28;1924;-73
2022/01/10 10:09:06;;;;;;;;;;;3.20;99.90;;;2.91;95.57;95667.44;10370645;28;2001;-72
2022/01/10 10:14:09;;;;;;;;;;;3.70;99.90;;;2.96;94.96;95680.84;10368931;28;1798;-72
2022/01/10 10:19:13;;;;;;;;;;;3.80;99.90;;;2.77;97.17;95681.94;10373585;28;1966;-73
2022/01/10 10:24:16;;;;;;;;;;;3.70;99.90;;;2.41;96.67;95683.66;10367137;28;1906;-72
2022/01/10 10:29:20;;;;;;;;;;;3.60;99.90;;;2.54;97.17;95699.38;10391872;28;1985;-72
2022/01/10 10:34:24;;;;;;;;;;;4.20;99.90;;;2.46;96.58;95709.53;10386137;28;1767;-71
2022/01/10 10:39:27;;;;;;;;;;;3.50;99.90;;;2.23;98.54;95707.56;10378063;28;1921;-72
2022/01/10 10:44:30;;;;;;;;;;;3.30;99.90;;;1.98;98.94;95719.06;10373593;28;1759;-71
2022/01/10 10:49:35;;;;;;;;;;;3.20;99.90;;;1.65;100.00;95719.41;10370633;28;1914;-72
2022/01/10 10:54:38;;;;;;;;;;;2.90;99.90;;;1.55;100.00;95735.81;10368617;28;1786;-72
2022/01/10 10:59:43;;;;;;;;;;;3.40;99.90;;;1.58;100.00;95738.00;10366962;28;1747;-73
2022/01/10 11:04:47;;;;;;;;;;;2.80;99.90;;;1.61;100.00;95747.38;10371709;28;1924;-71
2022/01/10 11:09:50;;;;;;;;;;;2.80;99.90;;;1.65;100.00;95756.50;10370391;28;1987;-71
2022/01/10 11:14:54;;;;;;;;;;;2.70;99.90;;;1.73;100.00;95768.69;10375439;28;1787;-72
2022/01/10 11:19:57;;;;;;;;;;;3.30;99.90;;;1.52;100.00;95770.66;10381719;23;3763;-71
2022/01/10 11:25:02;;;;;;;;;;;2.70;99.90;;;1.46;100.00;95782.13;10376861;28;1788;-73
2022/01/10 11:30:05;;;;;;;;;;;2.60;99.90;;;1.62;100.00;95770.19;10386096;28;1926;-69
2022/01/10 11:35:09;;;;;;;;;;;2.70;99.90;;;2.08;100.00;95780.34;10384314;28;1791;-72
2022/01/10 11:40:13;;;;;;;;;;;2.90;99.90;;;2.35;97.23;95775.53;10407775;28;1941;-72
2022/01/10 11:45:16;;;;;;;;;;;2.30;99.90;;;2.46;97.44;95784.63;10413007;28;2162;-72
2022/01/10 11:50:20;;;;;;;;;;;3.30;99.90;;;2.45;96.75;95790.97;10388158;28;2152;-71
2022/01/10 11:55:23;;;;;;;;;;;3.40;99.90;;;2.15;97.00;95801.47;10382222;28;1998;-69
2022/01/10 12:00:26;;;;;;;;;;;3.30;99.90;;;2.09;97.97;95795.22;10392805;28;2167;-70
2022/01/10 12:05:29;;;;;;;;;;;3.30;99.90;;;2.05;98.13;95799.34;10384842;28;1830;-72
2022/01/10 12:10:32;;;;;;;;;;;3.20;99.90;;;1.66;100.00;95811.13;10384036;28;1965;-70
2022/01/10 12:15:36;;;;;;;;;;;3.00;99.90;;;1.56;100.00;95811.59;10382734;28;1842;-70
2022/01/10 12:20:40;;;;;;;;;;;2.80;99.90;;;1.69;100.00;95818.63;10377206;28;1775;-71
2022/01/10 12:25:42;;;;;;;;;;;2.80;99.90;;;1.82;100.00;95831.78;10376231;28;2002;-72
2022/01/10 12:30:45;;;;;;;;;;;2.80;99.90;;;2.13;100.00;95825.56;10386967;28;1914;-71
2022/01/10 12:35:49;;;;;;;;;;;3.00;99.90;;;2.16;100.00;95827.81;10396084;28;1897;-71
2022/01/10 12:40:51;;;;;;;;;;;3.10;99.90;;;2.42;100.00;95833.88;10386158;28;1760;-71
2022/01/10 12:45:55;;;;;;;;;;;3.20;99.90;;;2.62;97.12;95845.06;10377103;28;1823;-71
2022/01/10 12:51:04;;;;;;;;;;;3.40;99.90;;;2.74;94.24;95844.34;10374470;28;1978;-70
2022/01/10 12:56:27;;;;;;;;;;;3.70;99.90;;;2.96;94.29;95853.44;10381925;28;1798;-70
2022/01/10 13:01:30;;;;;;;;;;;3.80;99.90;;;2.80;95.54;95856.69;10374393;28;1909;-72
2022/01/10 13:06:34;;;;;;;;;;;3.70;99.90;;;2.71;94.41;95864.16;10375846;28;1967;-69
2022/01/10 13:11:44;;;;;;;;;;;3.70;99.90;;;2.50;96.42;95872.56;10381378;28;1640;-70
2022/01/10 13:16:47;;;;;;;;;;;3.60;99.90;;;2.30;97.70;95878.06;10378462;28;1715;-71
2022/01/10 13:21:53;;;;;;;;;;;3.40;99.90;;;1.86;98.40;95898.44;10383792;28;1766;-70
2022/01/10 13:26:56;;;;;;;;;;;3.20;99.90;;;2.07;98.34;95906.00;10385591;28;1963;-70
2022/01/10 13:31:59;;;;;;;;;;;3.00;99.90;;;2.22;97.49;95910.16;10380383;28;1866;-70
2022/01/10 13:37:02;;;;;;;;;;;3.10;99.90;;;2.21;97.76;95913.84;10383288;28;1827;-70
2022/01/10 13:42:06;;;;;;;;;;;3.10;99.90;;;2.13;98.15;95917.59;10378088;28;1862;-70
2022/01/10 13:47:11;;;;;;;;;;;3.20;99.90;;;2.32;97.13;95929.06;10382032;28;1973;-70
2022/01/10 13:52:14;;;;;;;;;;;3.30;99.90;;;2.26;96.34;95929.91;10380205;28;1830;-69
2022/01/10 13:57:18;;;;;;;;;;;3.30;99.90;;;2.40;97.03;95942.03;10391834;28;1900;-69
2022/01/10 14:02:21;;;;;;;;;;;3.30;99.90;;;2.30;97.23;95947.84;10373813;28;1818;-71
2022/01/10 14:07:24;;;;;;;;;;;3.30;99.90;;;2.06;97.04;95951.31;10378837;28;1981;-70
2022/01/10 14:12:27;;;;;;;;;;;3.30;99.90;;;1.94;98.42;95943.22;10373695;28;1834;-69
2022/01/10 14:17:30;;;;;;;;;;;3.10;99.90;;;1.87;98.74;95961.84;10370959;28;2111;-70
2022/01/10 14:22:33;;;;;;;;;;;2.90;99.90;;;1.76;98.85;95967.00;10372991;28;1760;-71
2022/01/10 14:27:36;;;;;;;;;;;2.90;99.90;;;2.01;98.84;95982.94;10389404;28;1894;-70
2022/01/10 14:32:39;;;;;;;;;;;3.00;99.90;;;1.93;99.53;95989.31;10397085;28;1806;-72
2022/01/10 14:37:42;;;;;;;;;;;3.00;99.90;;;1.94;99.08;96001.56;10394779;28;1973;-71
2022/01/10 14:42:45;;;;;;;;;;;3.10;99.90;;;1.79;100.00;96009.00;10381248;28;1854;-70
2022/01/10 14:47:50;;;;;;;;;;;3.00;99.90;;;1.86;100.00;96023.03;10379811;28;1918;-72
2022/01/10 14:52:54;;;;;;;;;;;2.90;99.90;;;1.91;100.00;96031.16;10383084;28;1864;-71
2022/01/10 14:57:57;;;;;;;;;;;3.00;99.90;;;1.75;99.56;96028.97;10383505;28;1873;-70
2022/01/10 15:03:04;;;;;;;;;;;2.90;99.90;;;1.77;99.39;96032.22;10386585;28;1833;-71
2022/01/10 15:08:07;;;;;;;;;;;2.90;99.90;;;1.61;100.00;96046.78;10395620;28;1977;-70
2022/01/10 15:13:11;;;;;;;;;;;3.10;99.90;;;1.59;99.27;96052.31;10376830;28;1855;-71
2022/01/10 15:18:16;;;;;;;;;;;2.70;99.90;;;1.47;100.00;96064.56;10374476;28;1795;-70
2022/01/10 15:23:19;;;;;;;;;;;2.60;99.90;;;1.59;100.00;96067.38;10374383;28;1865;-69
2022/01/10 15:28:22;;;;;;;;;;;2.60;99.90;;;1.59;98.24;96068.19;10372169;28;1956;-69
2022/01/10 15:33:26;;;;;;;;;;;2.70;99.90;;;1.63;98.76;96080.00;10386843;28;1828;-70
2022/01/10 15:38:29;;;;;;;;;;;2.70;99.90;;;1.57;100.00;96085.31;10368919;28;1818;-70
2022/01/10 15:43:32;;;;;;;;;;;2.70;99.90;;;1.65;100.00;96098.31;10376274;28;1806;-68
2022/01/10 15:48:36;;;;;;;;;;;2.70;99.90;;;1.63;100.00;96109.13;10373029;28;1918;-70
2022/01/10 15:53:39;;;;;;;;;;;2.70;99.90;;;1.70;100.00;96114.41;10377348;28;1818;-70
2022/01/10 15:58:42;;;;;;;;;;;2.70;99.90;;;1.68;100.00;96124.41;10370978;28;1842;-69
2022/01/10 16:03:47;;;;;;;;;;;2.70;99.90;;;1.62;100.00;96125.25;10372354;28;1774;-70
2022/01/10 16:08:50;;;;;;;;;;;2.70;99.90;;;1.48;100.00;96137.72;10368780;28;1895;-71
2022/01/10 16:13:54;;;;;;;;;;;2.70;99.90;;;1.47;100.00;96141.41;10377469;28;1771;-70
2022/01/10 16:18:57;;;;;;;;;;;2.60;99.90;;;1.39;100.00;96152.19;10369710;28;1930;-71
2022/01/10 16:24:00;;;;;;;;;;;2.60;99.90;;;1.42;100.00;96173.00;10374284;28;1807;-70
2022/01/10 16:29:02;;;;;;;;;;;2.50;99.90;;;1.36;100.00;96184.41;10379959;28;1977;-70
2022/01/10 16:34:26;;;;;;;;;;;2.50;99.90;;;1.36;100.00;96200.31;10369662;28;1822;-71
2022/01/10 16:39:29;;;;;;;;;;;2.50;99.90;;;1.42;100.00;96204.78;10368973;28;1846;-70
2022/01/10 16:44:35;;;;;;;;;;;2.60;99.90;;;1.38;100.00;96214.16;10387354;28;1627;-70
2022/01/10 16:49:38;;;;;;;;;;;2.50;99.90;;;1.33;100.00;96217.41;10371381;28;1987;-71
2022/01/10 16:54:42;;;;;;;;;;;2.60;99.90;;;1.27;100.00;96228.00;10377192;28;1850;-71
2022/01/10 16:59:45;;;;;;;;;;;2.40;99.90;;;1.23;100.00;96229.44;10376511;28;1889;-68
2022/01/10 17:04:53;;;;;;;;;;;2.30;99.90;;;1.18;100.00;96239.81;10375574;28;1799;-69
2022/01/10 17:09:56;;;;;;;;;;;2.30;99.90;;;1.18;100.00;96235.34;10372606;28;1906;-71
2022/01/10 17:15:14;;;;;;;;;;;2.30;99.90;;;1.15;100.00;96256.13;10375903;28;2074;-70
2022/01/10 17:20:17;;;;;;;;;;;2.30;99.90;;;1.15;100.00;96262.25;10367855;28;1780;-71
2022/01/10 17:25:20;;;;;;;;;;;2.20;99.90;;;1.25;100.00;96256.53;10376740;23;2087;-83
2022/01/10 17:30:24;;;;;;;;;;;2.30;99.90;;;1.23;100.00;96255.94;10371506;28;1895;-80
2022/01/10 17:35:27;;;;;;;;;;;2.30;99.90;;;1.14;100.00;96263.22;10385299;23;1970;-77
2022/01/10 17:40:30;;;;;;;;;;;2.30;99.90;;;1.24;100.00;96273.44;10358850;28;1840;-79
2022/01/10 17:45:33;;;;;;;;;;;2.80;99.90;;;1.31;100.00;96283.03;10369817;28;1870;-80
2022/01/10 17:50:38;;;;;;;;;;;2.40;99.90;;;1.18;100.00;96290.94;10362606;28;1914;-75
2022/01/10 17:55:47;;;;;;;;;;;2.40;99.90;;;1.22;100.00;96301.97;10363972;28;1879;-76
2022/01/10 18:00:51;;;;;;;;;;;2.00;99.90;;;1.08;100.00;96304.59;10361205;28;1409;-76
2022/01/10 18:05:55;;;;;;;;;;;2.30;99.90;;;1.18;100.00;96308.69;10396539;28;2390;-74
2022/01/10 18:10:58;;;;;;;;;;;2.30;99.90;;;1.20;100.00;96327.81;10363914;28;1963;-76
2022/01/10 18:16:01;;;;;;;;;;;2.30;99.90;;;1.12;100.00;96322.72;10362948;28;1816;-77
2022/01/10 18:21:05;;;;;;;;;;;2.20;99.90;;;1.15;100.00;96323.16;10358345;28;2402;-77
2022/01/10 18:26:08;;;;;;;;;;;2.30;99.90;;;1.22;100.00;96339.03;10362136;28;2319;-77
2022/01/10 18:31:11;;;;;;;;;;;2.30;99.90;;;1.33;100.00;96346.38;10361087;28;2010;-77
2022/01/10 18:36:14;;;;;;;;;;;2.30;99.90;;;1.46;100.00;96349.03;10360965;28;1898;-83
2022/01/10 18:41:17;;;;;;;;;;;2.40;99.90;;;1.29;100.00;96348.63;10368501;28;1901;-81
2022/01/10 18:46:20;;;;;;;;;;;2.40;99.90;;;1.37;100.00;96358.22;10364200;28;1943;-77
2022/01/10 18:51:23;;;;;;;;;;;2.40;99.90;;;1.20;100.00;96365.72;10368022;28;1993;-75
2022/01/10 18:56:26;;;;;;;;;;;2.40;99.90;;;1.26;100.00;96377.34;10366672;28;1802;-76
2022/01/10 19:01:29;;;;;;;;;;;2.30;99.90;;;1.27;100.00;96378.97;10396699;28;1930;-78
2022/01/10 19:06:32;;;;;;;;;;;2.30;99.90;;;1.27;100.00;96382.47;10365190;28;1977;-78
2022/01/10 19:11:36;;;;;;;;;;;2.40;99.90;;;1.02;100.00;96398.06;10373183;28;1953;-78
2022/01/10 19:16:39;;;;;;;;;;;2.20;99.90;;;1.19;100.00;96387.09;10382668;28;1903;-80
2022/01/10 19:21:42;;;;;;;;;;;2.60;99.90;;;1.31;100.00;96398.75;10377961;28;1868;-76
2022/01/10 19:26:45;;;;;;;;;;;2.30;99.90;;;1.23;100.00;96409.53;10378851;28;1903;-82
2022/01/10 19:31:48;;;;;;;;;;;2.30;99.90;;;1.22;100.00;96418.50;10386356;28;1887;-82
2022/01/10 19:36:51;;;;;;;;;;;2.30;99.90;;;1.13;100.00;96420.47;10409511;28;2021;-81
2022/01/10 19:41:54;;;;;;;;;;;2.30;99.90;;;1.15;100.00;96430.91;10380626;28;2060;-83
2022/01/10 19:46:57;;;;;;;;;;;2.30;99.90;;;1.04;100.00;96430.44;10391607;28;2050;-77
2022/01/10 19:52:00;;;;;;;;;;;2.20;99.90;;;1.03;100.00;96428.00;10382210;28;1907;-77
2022/01/10 19:57:03;;;;;;;;;;;2.10;99.90;;;1.03;100.00;96431.47;10368762;28;1462;-77
2022/01/10 20:02:06;;;;;;;;;;;2.20;99.90;;;1.02;100.00;96431.66;10375328;28;2344;-82
2022/01/10 20:07:10;;;;;;;;;;;2.10;99.90;;;0.86;100.00;96435.44;10381210;28;1637;-79
2022/01/10 20:12:13;;;;;;;;;;;2.10;99.90;;;0.97;100.00;96445.50;10377266;28;1968;-79
2022/01/10 20:17:19;;;;;;;;;;;2.00;99.90;;;0.95;100.00;96447.50;10383155;28;1816;-80
2022/01/10 20:22:22;;;;;;;;;;;2.00;99.90;;;1.02;100.00;96453.66;10393849;28;1922;-78
2022/01/10 20:27:25;;;;;;;;;;;2.00;99.90;;;0.92;100.00;96444.44;10386397;28;1961;-79
2022/01/10 20:32:28;;;;;;;;;;;2.20;99.90;;;0.92;100.00;96450.53;10440509;28;2025;-79
2022/01/10 20:37:31;;;;;;;;;;;2.10;99.90;;;0.85;100.00;96452.34;10388465;28;1908;-77
2022/01/10 20:42:34;;;;;;;;;;;2.00;99.90;;;0.94;100.00;96450.34;10390857;28;1969;-76
2022/01/10 20:47:37;;;;;;;;;;;2.10;99.90;;;0.84;100.00;96450.72;10394937;28;1956;-78
2022/01/10 20:52:40;;;;;;;;;;;2.20;99.90;;;0.87;100.00;96452.16;10427410;28;2343;-78
2022/01/10 20:57:43;;;;;;;;;;;2.00;99.90;;;0.94;100.00;96466.22;10393915;28;1875;-79
2022/01/10 21:02:46;;;;;;;;;;;2.00;99.90;;;1.02;100.00;96474.84;10397678;28;2009;-79
2022/01/10 21:07:50;;;;;;;;;;;2.10;99.90;;;0.99;100.00;96469.91;10385896;28;1953;-75
2022/01/10 21:12:53;;;;;;;;;;;2.10;99.90;;;1.11;100.00;96474.66;10408862;28;1970;-75
2022/01/10 21:17:57;;;;;;;;;;;2.10;99.90;;;1.21;100.00;96475.09;10405903;28;1927;-76
2022/01/10 21:23:00;;;;;;;;;;;2.20;99.90;;;1.28;100.00;96483.91;10374371;28;1799;-76
2022/01/10 21:28:03;;;;;;;;;;;2.30;99.90;;;1.25;100.00;96489.59;10408217;28;2079;-73
2022/01/10 21:33:05;;;;;;;;;;;2.30;99.90;;;1.22;100.00;96490.00;10365074;28;1978;-71
2022/01/10 21:38:08;;;;;;;;;;;2.30;99.90;;;1.15;100.00;96494.44;10366028;28;1845;-75
2022/01/10 21:43:11;;;;;;;;;;;2.30;99.90;;;1.16;100.00;96501.38;10365357;28;1888;-74
2022/01/10 21:48:14;;;;;;;;;;;2.20;99.90;;;1.15;100.00;96502.41;10367725;28;1897;-74
2022/01/10 21:53:17;;;;;;;;;;;2.80;99.90;;;1.19;100.00;96511.56;10384410;28;2040;-74
2022/01/10 21:58:20;;;;;;;;;;;2.20;99.90;;;0.96;100.00;96515.34;10364041;28;1858;-71
2022/01/10 22:03:23;;;;;;;;;;;2.10;99.90;;;1.08;100.00;96515.56;10370729;28;1877;-71
2022/01/10 22:08:26;;;;;;;;;;;2.10;99.90;;;0.97;100.00;96518.78;10366534;28;2173;-71
2022/01/10 22:13:29;;;;;;;;;;;3.00;99.90;;;0.95;100.00;96521.63;10391539;28;1849;-70
2022/01/10 22:18:33;;;;;;;;;;;2.10;99.90;;;1.01;100.00;96520.84;10369191;28;1830;-70
2022/01/10 22:23:36;;;;;;;;;;;2.10;99.90;;;0.99;100.00;96528.16;10363850;28;1877;-71
2022/01/10 22:28:39;;;;;;;;;;;2.10;99.90;;;0.91;100.00;96530.16;10360361;28;1979;-71
2022/01/10 22:33:42;;;;;;;;;;;2.10;99.90;;;0.94;100.00;96535.88;10365441;28;1945;-70
2022/01/10 22:38:47;;;;;;;;;;;2.50;99.90;;;1.00;100.00;96537.75;10364172;28;1982;-71
2022/01/10 22:43:49;;;;;;;;;;;2.10;99.90;;;0.91;100.00;96541.56;10394049;28;1864;-71
2022/01/10 22:48:52;;;;;;;;;;;2.10;99.90;;;0.99;100.00;96548.53;10364906;28;1974;-71
2022/01/10 22:53:57;;;;;;;;;;;2.10;99.90;;;0.83;100.00;96539.06;10362289;28;1862;-71
2022/01/10 22:59:00;;;;;;;;;;;2.00;99.90;;;0.84;100.00;96545.19;10361025;28;1854;-71
2022/01/10 23:04:03;;;;;;;;;;;2.00;99.90;;;0.85;100.00;96547.63;10374975;28;1899;-70
2022/01/10 23:09:06;;;;;;;;;;;2.00;99.90;;;0.90;100.00;96555.81;10365694;28;1985;-70
2022/01/10 23:14:15;;;;;;;;;;;1.90;99.90;;;0.98;100.00;96553.00;10361517;28;1911;-70
2022/01/10 23:19:18;;;;;;;;;;;2.00;99.90;;;0.79;100.00;96553.69;10361777;28;1873;-71
2022/01/10 23:24:21;;;;;;;;;;;2.00;99.90;;;0.87;100.00;96558.03;10360366;28;2389;-71
2022/01/10 23:29:24;;;;;;;;;;;1.90;99.90;;;0.85;100.00;96571.47;10376499;23;3839;-69
2022/01/10 23:34:27;;;;;;;;;;;2.00;99.90;;;0.75;100.00;96573.59;10406541;28;1863;-68
2022/01/10 23:39:29;;;;;;;;;;;1.90;99.90;;;0.64;100.00;96577.63;10384096;28;1911;-68
2022/01/10 23:44:33;;;;;;;;;;;1.90;99.90;;;0.79;100.00;96577.53;10403425;28;2028;-68